createdAt,value
2023-05-07T00:00:56.522Z,97361.22
2023-05-07T00:03:24.244Z,97361.69
2023-05-07T00:05:54.518Z,97352.56
2023-05-07T00:08:22.221Z,97369.38
2023-05-07T00:10:49.774Z,97367.19
2023-05-07T00:13:17.320Z,97363.00
2023-05-07T00:15:44.863Z,97364.09
2023-05-07T00:18:12.550Z,97370.25
2023-05-07T00:20:40.285Z,97370.22
2023-05-07T00:23:07.764Z,97360.31
2023-05-07T00:25:35.367Z,97366.06
2023-05-07T00:28:03.974Z,97367.13
2023-05-07T00:30:31.662Z,97359.38
2023-05-07T00:32:59.403Z,97366.09
2023-05-07T00:35:27.658Z,97371.53
2023-05-07T00:37:55.165Z,97362.28
2023-05-07T00:40:23.350Z,97381.44
2023-05-07T00:42:51.176Z,97377.69
2023-05-07T00:45:18.809Z,97376.25
2023-05-07T00:47:46.409Z,97371.16
2023-05-07T00:50:14.801Z,97364.16
2023-05-07T00:52:43.572Z,97369.31
2023-05-07T00:55:11.704Z,97370.66
2023-05-07T00:57:41.810Z,97378.75
2023-05-07T01:00:11.195Z,97382.31
2023-05-07T01:02:40.050Z,97369.59
2023-05-07T01:05:10.562Z,97385.78
2023-05-07T01:07:41.391Z,97377.19
2023-05-07T01:10:11.117Z,97374.47
2023-05-07T01:12:40.887Z,97372.88
2023-05-07T01:15:10.648Z,97377.84
2023-05-07T01:17:41.414Z,97379.28
2023-05-07T01:20:15.341Z,97383.13
2023-05-07T01:22:44.726Z,97375.25
2023-05-07T01:25:13.605Z,97371.66
2023-05-07T01:27:46.356Z,97364.59
2023-05-07T01:30:14.694Z,97360.19
2023-05-07T01:32:58.352Z,97358.31
2023-05-07T01:35:35.697Z,97366.38
2023-05-07T01:38:05.983Z,97361.34
2023-05-07T01:40:35.764Z,97356.94
2023-05-07T01:43:07.293Z,97362.91
2023-05-07T01:45:37.682Z,97365.97
2023-05-07T01:48:05.910Z,97363.53
2023-05-07T01:50:34.145Z,97362.97
2023-05-07T01:53:03.780Z,97347.78
2023-05-07T01:55:31.477Z,97363.47
2023-05-07T01:57:59.644Z,97365.84
2023-05-07T02:00:27.563Z,97369.56
2023-05-07T02:02:55.764Z,97374.44
2023-05-07T02:05:35.555Z,97372.69
2023-05-07T02:08:09.546Z,97367.81
2023-05-07T02:10:37.698Z,97360.25
2023-05-07T02:13:07.586Z,97364.31
2023-05-07T02:15:35.518Z,97370.72
2023-05-07T02:18:07.716Z,97382.53
2023-05-07T02:20:36.654Z,97374.53
2023-05-07T02:23:04.202Z,97369.22
2023-05-07T02:25:31.961Z,97368.97
2023-05-07T02:28:00.269Z,97377.59
2023-05-07T02:30:57.049Z,97375.38
2023-05-07T02:33:24.882Z,97386.63
2023-05-07T02:35:53.255Z,97388.13
2023-05-07T02:38:23.616Z,97374.53
2023-05-07T02:40:51.160Z,97368.88
2023-05-07T02:43:18.841Z,97370.84
2023-05-07T02:45:49.166Z,97362.50
2023-05-07T02:48:17.093Z,97365.44
2023-05-07T02:50:44.750Z,97365.91
2023-05-07T02:53:14.628Z,97380.47
2023-05-07T02:55:42.217Z,97375.88
2023-05-07T02:58:09.820Z,97360.28
2023-05-07T03:00:39.127Z,97371.69
2023-05-07T03:03:30.171Z,97359.41
2023-05-07T03:05:57.890Z,97370.84
2023-05-07T03:08:26.198Z,97371.22
2023-05-07T03:10:53.918Z,97376.94
2023-05-07T03:13:21.751Z,97364.31
2023-05-07T03:15:50.040Z,97369.97
2023-05-07T03:18:17.787Z,97370.47
2023-05-07T03:20:45.576Z,97368.38
2023-05-07T03:23:13.535Z,97375.59
2023-05-07T03:25:41.247Z,97369.00
2023-05-07T03:28:09.222Z,97371.53
2023-05-07T03:30:46.060Z,97377.69
2023-05-07T03:33:13.622Z,97377.53
2023-05-07T03:35:41.893Z,97367.44
2023-05-07T03:38:10.072Z,97370.59
2023-05-07T03:40:39.272Z,97362.66
2023-05-07T03:43:07.133Z,97364.34
2023-05-07T03:45:37.620Z,97363.56
2023-05-07T03:48:13.109Z,97352.56
2023-05-07T03:50:41.394Z,97364.38
2023-05-07T03:53:08.978Z,97359.16
2023-05-07T03:55:40.469Z,97351.44
2023-05-07T03:58:08.176Z,97363.28
2023-05-07T04:00:39.547Z,97365.03
2023-05-07T04:03:17.672Z,97362.13
2023-05-07T04:05:45.366Z,97356.09
2023-05-07T04:08:12.994Z,97348.47
2023-05-07T04:10:43.705Z,97351.34
2023-05-07T04:13:12.648Z,97349.34
2023-05-07T04:15:40.289Z,97346.34
2023-05-07T04:18:11.098Z,97337.66
2023-05-07T04:20:40.481Z,97338.16
2023-05-07T04:23:12.270Z,97349.53
2023-05-07T04:25:40.532Z,97337.72
2023-05-07T04:28:22.977Z,97336.31
2023-05-07T04:30:51.108Z,97325.81
2023-05-07T04:33:19.308Z,97326.75
2023-05-07T04:35:48.222Z,97321.69
2023-05-07T04:38:16.261Z,97322.59
2023-05-07T04:40:44.378Z,97318.28
2023-05-07T04:43:17.349Z,97314.78
2023-05-07T04:45:52.236Z,97320.19
2023-05-07T04:48:21.811Z,97316.06
2023-05-07T04:50:52.079Z,97321.38
2023-05-07T04:53:22.624Z,97319.81
2023-05-07T04:55:58.030Z,97324.63
2023-05-07T04:58:33.152Z,97311.91
2023-05-07T05:01:01.843Z,97319.25
2023-05-07T05:03:31.365Z,97323.66
2023-05-07T05:06:00.804Z,97317.56
2023-05-07T05:08:32.302Z,97324.56
2023-05-07T05:11:03.570Z,97318.31
2023-05-07T05:13:33.355Z,97310.56
2023-05-07T05:16:04.225Z,97300.84
2023-05-07T05:18:33.768Z,97296.06
2023-05-07T05:21:01.425Z,97289.19
2023-05-07T05:23:30.008Z,97289.66
2023-05-07T05:25:59.039Z,97286.22
2023-05-07T05:28:29.291Z,97274.63
2023-05-07T05:30:57.346Z,97279.84
2023-05-07T05:33:27.033Z,97273.69
2023-05-07T05:35:55.765Z,97284.94
2023-05-07T05:38:23.600Z,97283.72
2023-05-07T05:40:53.380Z,97278.72
2023-05-07T05:43:22.003Z,97264.56
2023-05-07T05:45:49.717Z,97270.34
2023-05-07T05:48:17.485Z,97257.25
2023-05-07T05:50:45.081Z,97265.69
2023-05-07T05:53:12.951Z,97257.69
2023-05-07T05:55:41.188Z,97258.06
2023-05-07T05:58:09.119Z,97252.28
2023-05-07T06:00:41.392Z,97241.63
2023-05-07T06:03:09.075Z,97251.19
2023-05-07T06:05:37.704Z,97246.91
2023-05-07T06:08:06.335Z,97247.66
2023-05-07T06:10:40.060Z,97249.56
2023-05-07T06:13:09.551Z,97239.91
2023-05-07T06:15:38.423Z,97242.78
2023-05-07T06:18:10.864Z,97232.50
2023-05-07T06:20:38.681Z,97231.09
2023-05-07T06:23:11.823Z,97224.38
2023-05-07T06:25:39.434Z,97220.53
2023-05-07T06:28:07.630Z,97226.94
2023-05-07T06:30:37.151Z,97225.13
2023-05-07T06:33:04.885Z,97233.47
2023-05-07T06:35:32.535Z,97228.13
2023-05-07T06:38:02.052Z,97236.63
2023-05-07T06:40:30.993Z,97217.06
2023-05-07T06:43:00.938Z,97216.13
2023-05-07T06:45:48.747Z,97210.44
2023-05-07T06:48:16.448Z,97205.06
2023-05-07T06:50:52.130Z,97209.63
2023-05-07T06:53:20.207Z,97194.66
2023-05-07T06:55:47.859Z,97195.16
2023-05-07T06:58:17.741Z,97189.13
2023-05-07T07:00:45.669Z,97187.66
2023-05-07T07:03:14.050Z,97182.75
2023-05-07T07:05:43.258Z,97187.38
2023-05-07T07:08:11.437Z,97190.22
2023-05-07T07:10:39.519Z,97178.84
2023-05-07T07:13:07.254Z,97173.47
2023-05-07T07:15:34.836Z,97172.31
2023-05-07T07:18:02.381Z,97163.63
2023-05-07T07:20:30.097Z,97159.91
2023-05-07T07:22:57.814Z,97151.25
2023-05-07T07:25:25.468Z,97155.25
2023-05-07T07:27:53.640Z,97158.13
2023-05-07T07:30:22.741Z,97158.41
2023-05-07T07:32:51.056Z,97153.53
2023-05-07T07:35:18.770Z,97156.47
2023-05-07T07:37:47.398Z,97163.25
2023-05-07T07:40:16.031Z,97152.22
2023-05-07T07:42:44.548Z,97169.41
2023-05-07T07:45:13.582Z,97164.66
2023-05-07T07:47:45.688Z,97161.88
2023-05-07T07:50:18.723Z,97167.72
2023-05-07T07:52:53.298Z,97168.84
2023-05-07T07:55:24.236Z,97180.56
2023-05-07T07:57:54.088Z,97172.72
2023-05-07T08:00:23.375Z,97178.03
2023-05-07T08:02:55.170Z,97191.59
2023-05-07T08:05:27.998Z,97194.91
2023-05-07T08:07:56.103Z,97203.13
2023-05-07T08:10:28.619Z,97202.91
2023-05-07T08:13:05.199Z,97200.41
2023-05-07T08:15:34.591Z,97199.28
2023-05-07T08:18:03.551Z,97213.22
2023-05-07T08:20:31.840Z,97214.09
2023-05-07T08:22:59.722Z,97208.97
2023-05-07T08:25:28.390Z,97212.38
2023-05-07T08:27:56.407Z,97218.78
2023-05-07T08:30:24.776Z,97218.59
2023-05-07T08:32:53.116Z,97232.47
2023-05-07T08:35:21.098Z,97245.03
2023-05-07T08:37:48.732Z,97245.38
2023-05-07T08:40:18.621Z,97255.88
2023-05-07T08:42:47.757Z,97274.34
2023-05-07T08:45:16.739Z,97276.03
2023-05-07T08:47:48.448Z,97276.72
2023-05-07T08:50:19.344Z,97284.94
2023-05-07T08:52:47.307Z,97297.38
2023-05-07T08:55:15.464Z,97290.97
2023-05-07T08:57:43.617Z,97290.28
2023-05-07T09:00:13.216Z,97303.44
2023-05-07T09:02:42.116Z,97281.94
2023-05-07T09:05:11.295Z,97293.06
2023-05-07T09:07:40.042Z,97295.31
2023-05-07T09:10:09.274Z,97295.25
2023-05-07T09:12:40.563Z,97302.75
2023-05-07T09:15:10.500Z,97297.88
2023-05-07T09:17:38.803Z,97297.22
2023-05-07T09:20:10.654Z,97313.78
2023-05-07T09:22:40.663Z,97335.97
2023-05-07T09:25:12.594Z,97330.81
2023-05-07T09:27:42.812Z,97343.94
2023-05-07T09:30:11.363Z,97358.31
2023-05-07T09:32:39.498Z,97354.44
2023-05-07T09:35:18.988Z,97367.59
2023-05-07T09:37:51.866Z,97365.44
2023-05-07T09:40:27.341Z,97381.47
2023-05-07T09:42:56.844Z,97390.97
2023-05-07T09:45:29.937Z,97389.78
2023-05-07T09:48:00.215Z,97385.81
2023-05-07T09:50:34.059Z,97402.28
2023-05-07T09:53:03.075Z,97415.91
2023-05-07T09:55:32.004Z,97420.38
2023-05-07T09:58:01.229Z,97431.00
2023-05-07T10:00:31.868Z,97446.56
2023-05-07T10:03:10.705Z,97450.25
2023-05-07T10:05:47.475Z,97447.47
2023-05-07T10:08:18.253Z,97468.75
2023-05-07T10:10:48.539Z,97470.41
2023-05-07T10:13:21.902Z,97488.09
2023-05-07T10:15:52.925Z,97476.69
2023-05-07T10:18:24.936Z,97492.50
2023-05-07T10:20:55.630Z,97486.88
2023-05-07T10:23:26.126Z,97481.13
2023-05-07T10:26:01.016Z,97487.53
2023-05-07T10:28:36.204Z,97488.03
2023-05-07T10:31:16.211Z,97493.72
2023-05-07T10:33:50.323Z,97508.38
2023-05-07T10:36:21.214Z,97508.91
2023-05-07T10:38:49.289Z,97492.91
2023-05-07T10:41:19.987Z,97484.22
2023-05-07T10:43:48.497Z,97500.81
2023-05-07T10:46:26.955Z,97512.88
2023-05-07T10:49:04.788Z,97499.47
2023-05-07T10:51:40.327Z,97500.34
2023-05-07T10:54:22.096Z,97503.84
2023-05-07T10:56:57.542Z,97518.63
2023-05-07T10:59:33.681Z,97527.28
2023-05-07T11:02:16.706Z,97513.06
2023-05-07T11:05:20.816Z,97536.72
2023-05-07T11:08:05.703Z,97538.53
2023-05-07T11:10:55.338Z,97533.53
2023-05-07T11:14:01.692Z,97532.09
2023-05-07T11:16:46.937Z,97520.03
2023-05-07T11:19:51.453Z,97531.78
2023-05-07T11:22:34.298Z,97528.00
2023-05-07T11:25:11.515Z,97531.81
2023-05-07T11:27:39.920Z,97523.00
2023-05-07T11:30:08.402Z,97527.25
2023-05-07T11:32:35.962Z,97532.63
2023-05-07T11:35:03.597Z,97524.72
2023-05-07T11:37:32.042Z,97531.66
2023-05-07T11:40:07.978Z,97547.69
2023-05-07T11:42:38.825Z,97541.09
2023-05-07T11:45:07.926Z,97538.41
2023-05-07T11:47:35.834Z,97530.09
2023-05-07T11:50:08.936Z,97544.47
2023-05-07T11:52:37.090Z,97546.00
2023-05-07T11:55:05.844Z,97563.03
2023-05-07T11:57:35.939Z,97563.69
2023-05-07T12:00:05.810Z,97568.16
2023-05-07T12:02:43.551Z,97548.16
2023-05-07T12:05:11.592Z,97550.47
2023-05-07T12:07:39.420Z,97574.44
2023-05-07T12:10:08.206Z,97573.19
2023-05-07T12:12:43.365Z,97569.53
2023-05-07T12:15:12.111Z,97577.38
2023-05-07T12:17:40.147Z,97570.22
2023-05-07T12:20:08.908Z,97562.59
2023-05-07T12:22:37.946Z,97571.66
2023-05-07T12:25:06.327Z,97549.94
2023-05-07T12:27:33.942Z,97555.56
2023-05-07T12:30:01.652Z,97542.09
2023-05-07T12:32:37.994Z,97560.16
2023-05-07T12:35:07.988Z,97555.94
2023-05-07T12:37:37.213Z,97550.59
2023-05-07T12:40:15.167Z,97548.00
2023-05-07T12:42:43.803Z,97543.84
2023-05-07T12:45:17.826Z,97562.00
2023-05-07T12:47:49.206Z,97558.38
2023-05-07T12:50:17.965Z,97572.44
2023-05-07T12:52:47.268Z,97573.19
2023-05-07T12:55:19.412Z,97587.16
2023-05-07T12:57:50.327Z,97598.03
2023-05-07T13:00:18.545Z,97597.41
2023-05-07T13:02:47.070Z,97579.94
2023-05-07T13:05:15.023Z,97577.56
2023-05-07T13:07:53.531Z,97571.44
2023-05-07T13:10:21.295Z,97564.16
2023-05-07T13:12:48.815Z,97567.22
2023-05-07T13:15:17.159Z,97571.44
2023-05-07T13:17:45.235Z,97559.81
2023-05-07T13:20:16.908Z,97567.56
2023-05-07T13:22:44.659Z,97563.66
2023-05-07T13:25:12.461Z,97566.38
2023-05-07T13:27:40.511Z,97572.59
2023-05-07T13:30:08.794Z,97573.75
2023-05-07T13:32:36.561Z,97580.75
2023-05-07T13:35:04.550Z,97559.72
2023-05-07T13:37:32.302Z,97569.78
2023-05-07T13:40:00.187Z,97575.63
2023-05-07T13:42:27.885Z,97570.97
2023-05-07T13:44:55.437Z,97581.09
2023-05-07T13:47:24.784Z,97577.22
2023-05-07T13:49:52.413Z,97589.66
2023-05-07T13:52:21.446Z,97588.91
2023-05-07T13:54:49.133Z,97591.31
2023-05-07T13:57:16.645Z,97572.38
2023-05-07T13:59:44.177Z,97577.47
2023-05-07T14:02:11.745Z,97580.19
2023-05-07T14:04:39.526Z,97578.41
2023-05-07T14:07:07.119Z,97566.72
2023-05-07T14:09:34.712Z,97571.88
2023-05-07T14:12:02.731Z,97569.59
2023-05-07T14:14:30.393Z,97576.63
2023-05-07T14:16:58.753Z,97582.97
2023-05-07T14:19:27.279Z,97581.44
2023-05-07T14:21:54.747Z,97582.19
2023-05-07T14:24:37.123Z,97586.84
2023-05-07T14:27:05.982Z,97585.31
2023-05-07T14:29:34.037Z,97588.03
2023-05-07T14:32:01.694Z,97582.59
2023-05-07T14:34:29.436Z,97575.25
2023-05-07T14:36:57.170Z,97577.59
2023-05-07T14:39:24.861Z,97574.56
2023-05-07T14:41:52.450Z,97584.63
2023-05-07T14:44:20.076Z,97590.84
2023-05-07T14:46:47.698Z,97594.75
2023-05-07T14:49:18.348Z,97588.56
2023-05-07T14:51:46.881Z,97599.38
2023-05-07T14:54:16.078Z,97616.06
2023-05-07T14:56:43.971Z,97618.00
2023-05-07T14:59:11.837Z,97624.59
2023-05-07T15:01:39.664Z,97624.63
2023-05-07T15:04:07.557Z,97629.63
2023-05-07T15:06:35.220Z,97616.50
2023-05-07T15:09:02.934Z,97637.78
2023-05-07T15:11:30.420Z,97637.38
2023-05-07T15:13:58.033Z,97633.50
2023-05-07T15:16:25.860Z,97643.97
2023-05-07T15:18:53.410Z,97636.22
2023-05-07T15:21:21.328Z,97640.03
2023-05-07T15:23:48.962Z,97647.03
2023-05-07T15:26:16.556Z,97655.53
2023-05-07T15:28:44.254Z,97648.53
2023-05-07T15:31:12.104Z,97663.56
2023-05-07T15:33:39.631Z,97662.38
2023-05-07T15:36:07.705Z,97677.94
2023-05-07T15:38:35.918Z,97686.38
2023-05-07T15:41:03.599Z,97679.75
2023-05-07T15:43:31.205Z,97691.41
2023-05-07T15:45:58.839Z,97689.44
2023-05-07T15:48:26.352Z,97684.84
2023-05-07T15:50:54.436Z,97698.38
2023-05-07T15:53:21.942Z,97688.28
2023-05-07T15:55:50.173Z,97693.34
2023-05-07T15:58:20.565Z,97685.94
2023-05-07T16:00:48.298Z,97705.34
2023-05-07T16:03:16.568Z,97703.44
2023-05-07T16:05:44.465Z,97699.56
2023-05-07T16:08:12.164Z,97714.28
2023-05-07T16:10:39.921Z,97716.56
2023-05-07T16:13:07.937Z,97723.88
2023-05-07T16:15:36.300Z,97720.75
2023-05-07T16:18:04.689Z,97729.66
2023-05-07T16:20:32.466Z,97727.69
2023-05-07T16:23:00.030Z,97729.22
2023-05-07T16:25:27.682Z,97722.22
2023-05-07T16:27:56.510Z,97742.34
2023-05-07T16:30:24.162Z,97729.59
2023-05-07T16:32:51.828Z,97726.53
2023-05-07T16:35:19.511Z,97738.94
2023-05-07T16:37:47.147Z,97731.97
2023-05-07T16:40:15.104Z,97730.84
2023-05-07T16:42:42.797Z,97744.00
2023-05-07T16:45:11.412Z,97739.78
2023-05-07T16:47:39.431Z,97736.63
2023-05-07T16:50:07.500Z,97750.53
2023-05-07T16:52:35.092Z,97748.91
2023-05-07T16:55:02.780Z,97754.66
2023-05-07T16:57:33.028Z,97748.91
2023-05-07T17:00:00.958Z,97739.25
2023-05-07T17:02:35.971Z,97742.41
2023-05-07T17:05:06.647Z,97747.44
2023-05-07T17:07:34.368Z,97747.34
2023-05-07T17:10:03.257Z,97757.78
2023-05-07T17:12:32.951Z,97749.63
2023-05-07T17:15:00.693Z,97753.06
2023-05-07T17:17:29.574Z,97756.84
2023-05-07T17:19:57.453Z,97759.13
2023-05-07T17:22:25.433Z,97753.25
2023-05-07T17:24:53.285Z,97759.09
2023-05-07T17:27:21.221Z,97754.75
2023-05-07T17:29:48.897Z,97755.25
2023-05-07T17:32:16.710Z,97769.91
2023-05-07T17:34:44.397Z,97768.31
2023-05-07T17:37:12.196Z,97769.47
2023-05-07T17:39:39.754Z,97774.44
2023-05-07T17:42:07.396Z,97769.38
2023-05-07T17:44:35.360Z,97770.06
2023-05-07T17:47:04.068Z,97778.50
2023-05-07T17:49:31.652Z,97767.94
2023-05-07T17:51:59.252Z,97780.38
2023-05-07T17:54:27.151Z,97782.28
2023-05-07T17:56:54.783Z,97778.81
2023-05-07T17:59:22.635Z,97775.28
2023-05-07T18:01:50.259Z,97776.03
2023-05-07T18:04:19.713Z,97782.16
2023-05-07T18:06:47.296Z,97784.09
2023-05-07T18:09:15.049Z,97777.50
2023-05-07T18:11:42.680Z,97782.78
2023-05-07T18:14:10.370Z,97777.34
2023-05-07T18:16:38.063Z,97783.81
2023-05-07T18:19:05.950Z,97787.31
2023-05-07T18:21:33.910Z,97797.97
2023-05-07T18:24:01.554Z,97789.41
2023-05-07T18:26:29.293Z,97785.47
2023-05-07T18:28:57.027Z,97802.84
2023-05-07T18:31:24.871Z,97795.50
2023-05-07T18:33:53.480Z,97787.25
2023-05-07T18:36:21.098Z,97791.06
2023-05-07T18:38:48.631Z,97801.88
2023-05-07T18:41:16.306Z,97790.25
2023-05-07T18:43:43.910Z,97803.75
2023-05-07T18:46:11.626Z,97803.47
2023-05-07T18:48:39.122Z,97812.34
2023-05-07T18:51:08.698Z,97807.69
2023-05-07T18:53:36.344Z,97810.47
2023-05-07T18:56:03.921Z,97806.63
2023-05-07T18:58:31.741Z,97803.50
2023-05-07T19:00:59.387Z,97812.72
2023-05-07T19:03:27.497Z,97820.34
2023-05-07T19:05:56.181Z,97815.03
2023-05-07T19:08:23.755Z,97814.19
2023-05-07T19:10:51.545Z,97817.34
2023-05-07T19:13:19.178Z,97819.28
2023-05-07T19:15:47.027Z,97820.69
2023-05-07T19:18:14.678Z,97820.63
2023-05-07T19:20:42.232Z,97834.09
2023-05-07T19:23:12.094Z,97836.81
2023-05-07T19:25:39.665Z,97826.84
2023-05-07T19:28:07.448Z,97829.91
2023-05-07T19:30:35.607Z,97832.97
2023-05-07T19:33:03.726Z,97841.44
2023-05-07T19:35:31.835Z,97836.81
2023-05-07T19:37:59.791Z,97826.44
2023-05-07T19:40:27.405Z,97831.66
2023-05-07T19:42:55.110Z,97850.25
2023-05-07T19:45:22.794Z,97829.72
2023-05-07T19:47:50.427Z,97830.41
2023-05-07T19:50:18.401Z,97843.22
2023-05-07T19:52:46.007Z,97843.22
2023-05-07T19:55:14.236Z,97848.63
2023-05-07T19:57:42.134Z,97857.03
2023-05-07T20:00:10.585Z,97842.78
2023-05-07T20:02:41.515Z,97856.09
2023-05-07T20:05:11.512Z,97854.53
2023-05-07T20:07:39.050Z,97863.91
2023-05-07T20:10:07.121Z,97862.16
2023-05-07T20:12:34.751Z,97865.28
2023-05-07T20:15:02.333Z,97866.03
2023-05-07T20:17:34.092Z,97860.56
2023-05-07T20:20:01.751Z,97866.19
2023-05-07T20:22:32.564Z,97880.16
2023-05-07T20:25:00.055Z,97867.19
2023-05-07T20:27:27.884Z,97862.59
2023-05-07T20:29:55.590Z,97875.88
2023-05-07T20:32:23.193Z,97880.03
2023-05-07T20:34:50.700Z,97885.69
2023-05-07T20:37:18.491Z,97881.06
2023-05-07T20:39:46.640Z,97880.66
2023-05-07T20:42:14.504Z,97886.97
2023-05-07T20:44:42.129Z,97895.34
2023-05-07T20:47:09.915Z,97884.72
2023-05-07T20:49:37.655Z,97894.63
2023-05-07T20:52:06.177Z,97901.94
2023-05-07T20:54:33.757Z,97896.56
2023-05-07T20:57:01.245Z,97919.63
2023-05-07T20:59:28.965Z,97904.44
2023-05-07T21:01:57.055Z,97894.63
2023-05-07T21:04:24.499Z,97920.38
2023-05-07T21:06:52.168Z,97923.19
2023-05-07T21:09:19.742Z,97929.03
2023-05-07T21:11:47.287Z,97938.50
2023-05-07T21:14:14.847Z,97941.38
2023-05-07T21:16:43.357Z,97953.97
2023-05-07T21:19:11.290Z,97938.16
2023-05-07T21:21:39.083Z,97948.16
2023-05-07T21:24:07.234Z,97954.16
2023-05-07T21:26:35.383Z,97959.72
2023-05-07T21:29:03.160Z,97968.13
2023-05-07T21:31:30.841Z,97976.63
2023-05-07T21:33:58.804Z,97973.69
2023-05-07T21:36:26.440Z,97952.16
2023-05-07T21:38:54.127Z,97981.88
2023-05-07T21:41:22.125Z,97969.97
2023-05-07T21:43:49.657Z,97987.56
2023-05-07T21:46:17.323Z,97983.00
2023-05-07T21:48:45.211Z,97988.38
2023-05-07T21:51:13.500Z,97979.25
2023-05-07T21:53:41.458Z,97984.19
2023-05-07T21:56:09.342Z,97981.94
2023-05-07T21:58:36.892Z,97983.84
2023-05-07T22:01:05.823Z,97992.06
2023-05-07T22:03:33.749Z,97981.53
2023-05-07T22:06:01.495Z,97978.09
2023-05-07T22:08:29.098Z,97991.03
2023-05-07T22:10:56.840Z,97987.56
2023-05-07T22:13:24.881Z,98002.72
2023-05-07T22:15:57.181Z,98005.56
2023-05-07T22:18:25.449Z,97994.47
2023-05-07T22:20:53.190Z,98002.09
2023-05-07T22:23:20.674Z,98007.81
2023-05-07T22:25:48.300Z,98011.97
2023-05-07T22:28:16.214Z,98002.69
2023-05-07T22:30:43.900Z,98018.66
2023-05-07T22:33:11.598Z,98014.13
2023-05-07T22:35:39.210Z,98017.78
2023-05-07T22:38:06.951Z,98022.72
2023-05-07T22:40:34.623Z,98022.38
2023-05-07T22:43:02.105Z,98023.53
2023-05-07T22:45:29.740Z,98030.81
2023-05-07T22:47:57.438Z,98033.84
2023-05-07T22:50:25.075Z,98034.19
2023-05-07T22:52:52.625Z,98045.16
2023-05-07T22:55:20.589Z,98019.53
2023-05-07T22:57:48.161Z,98046.59
2023-05-07T23:00:16.262Z,98048.41
2023-05-07T23:02:43.888Z,98059.84
2023-05-07T23:05:11.720Z,98063.75
2023-05-07T23:07:39.294Z,98050.66
2023-05-07T23:10:07.329Z,98055.22
2023-05-07T23:12:34.807Z,98061.84
2023-05-07T23:15:02.526Z,98047.50
2023-05-07T23:17:34.786Z,98058.38
2023-05-07T23:20:02.360Z,98061.63
2023-05-07T23:22:32.567Z,98054.38
2023-05-07T23:25:00.646Z,98059.75
2023-05-07T23:27:28.337Z,98061.41
2023-05-07T23:29:56.096Z,98068.78
2023-05-07T23:32:23.821Z,98065.88
2023-05-07T23:34:53.413Z,98063.63
2023-05-07T23:37:20.894Z,98049.44
2023-05-07T23:39:54.235Z,98050.53
2023-05-07T23:42:22.113Z,98059.16
2023-05-07T23:44:49.801Z,98061.28
2023-05-07T23:47:17.519Z,98055.69
2023-05-07T23:49:45.183Z,98057.28
2023-05-07T23:52:12.708Z,98052.13
2023-05-07T23:54:40.401Z,98055.91
2023-05-07T23:57:08.012Z,98068.91
2023-05-07T23:59:35.612Z,98035.00
